sensor_id;sensor_type;location;lat;lon;timestamp;P1;durP1;ratioP1;P2;durP2;ratioP2
68803;SDS011;55787;52.678;13.314;2024-03-08T00:01:32;28.08;;;9.10;;
68803;SDS011;55787;52.678;13.314;2024-03-08T00:03:59;25.80;;;8.95;;
68803;SDS011;55787;52.678;13.314;2024-03-08T00:06:25;29.37;;;9.73;;
68803;SDS011;55787;52.678;13.314;2024-03-08T00:08:52;27.98;;;8.77;;
68803;SDS011;55787;52.678;13.314;2024-03-08T00:11:19;26.65;;;8.95;;
68803;SDS011;55787;52.678;13.314;2024-03-08T00:13:47;27.73;;;9.00;;
68803;SDS011;55787;52.678;13.314;2024-03-08T00:16:14;27.63;;;8.93;;
68803;SDS011;55787;52.678;13.314;2024-03-08T00:18:40;30.17;;;9.47;;
68803;SDS011;55787;52.678;13.314;2024-03-08T00:21:08;29.38;;;8.40;;
68803;SDS011;55787;52.678;13.314;2024-03-08T00:23:35;23.95;;;8.48;;
68803;SDS011;55787;52.678;13.314;2024-03-08T00:26:03;27.88;;;8.55;;
68803;SDS011;55787;52.678;13.314;2024-03-08T00:28:30;27.05;;;8.85;;
68803;SDS011;55787;52.678;13.314;2024-03-08T00:30:57;28.23;;;8.57;;
68803;SDS011;55787;52.678;13.314;2024-03-08T00:33:23;30.92;;;8.90;;
68803;SDS011;55787;52.678;13.314;2024-03-08T00:35:50;27.60;;;8.48;;
68803;SDS011;55787;52.678;13.314;2024-03-08T00:38:17;31.63;;;9.57;;
68803;SDS011;55787;52.678;13.314;2024-03-08T00:40:45;27.67;;;9.02;;
68803;SDS011;55787;52.678;13.314;2024-03-08T00:43:11;27.23;;;9.20;;
68803;SDS011;55787;52.678;13.314;2024-03-08T00:45:38;29.35;;;9.18;;
68803;SDS011;55787;52.678;13.314;2024-03-08T00:48:05;27.75;;;9.18;;
68803;SDS011;55787;52.678;13.314;2024-03-08T00:50:32;30.80;;;9.27;;
68803;SDS011;55787;52.678;13.314;2024-03-08T00:53:00;26.70;;;8.77;;
68803;SDS011;55787;52.678;13.314;2024-03-08T00:55:26;27.07;;;9.27;;
68803;SDS011;55787;52.678;13.314;2024-03-08T00:57:53;26.65;;;8.82;;
68803;SDS011;55787;52.678;13.314;2024-03-08T01:00:20;27.17;;;8.40;;
68803;SDS011;55787;52.678;13.314;2024-03-08T01:02:47;25.75;;;8.70;;
68803;SDS011;55787;52.678;13.314;2024-03-08T01:05:14;27.35;;;8.70;;
68803;SDS011;55787;52.678;13.314;2024-03-08T01:07:40;24.73;;;8.97;;
68803;SDS011;55787;52.678;13.314;2024-03-08T01:10:07;22.50;;;7.93;;
68803;SDS011;55787;52.678;13.314;2024-03-08T01:12:38;28.90;;;8.95;;
68803;SDS011;55787;52.678;13.314;2024-03-08T01:15:05;29.05;;;8.93;;
68803;SDS011;55787;52.678;13.314;2024-03-08T01:17:33;30.05;;;8.88;;
68803;SDS011;55787;52.678;13.314;2024-03-08T01:19:59;31.40;;;9.57;;
68803;SDS011;55787;52.678;13.314;2024-03-08T01:22:26;28.63;;;10.10;;
68803;SDS011;55787;52.678;13.314;2024-03-08T01:24:54;27.38;;;8.93;;
68803;SDS011;55787;52.678;13.314;2024-03-08T01:27:22;27.05;;;8.48;;
68803;SDS011;55787;52.678;13.314;2024-03-08T01:29:48;29.92;;;8.77;;
68803;SDS011;55787;52.678;13.314;2024-03-08T01:32:15;24.50;;;8.47;;
68803;SDS011;55787;52.678;13.314;2024-03-08T01:34:42;26.55;;;8.57;;
68803;SDS011;55787;52.678;13.314;2024-03-08T01:37:08;28.77;;;9.05;;
68803;SDS011;55787;52.678;13.314;2024-03-08T01:39:35;27.42;;;9.20;;
68803;SDS011;55787;52.678;13.314;2024-03-08T01:42:02;29.08;;;8.73;;
68803;SDS011;55787;52.678;13.314;2024-03-08T01:44:28;27.10;;;8.97;;
68803;SDS011;55787;52.678;13.314;2024-03-08T01:46:56;28.73;;;8.10;;
68803;SDS011;55787;52.678;13.314;2024-03-08T01:49:23;26.85;;;8.88;;
68803;SDS011;55787;52.678;13.314;2024-03-08T01:51:51;28.08;;;9.18;;
68803;SDS011;55787;52.678;13.314;2024-03-08T01:54:18;33.63;;;9.00;;
68803;SDS011;55787;52.678;13.314;2024-03-08T01:56:58;27.27;;;9.33;;
68803;SDS011;55787;52.678;13.314;2024-03-08T01:59:25;28.52;;;9.15;;
68803;SDS011;55787;52.678;13.314;2024-03-08T02:01:54;28.23;;;9.18;;
68803;SDS011;55787;52.678;13.314;2024-03-08T02:04:21;27.48;;;8.90;;
68803;SDS011;55787;52.678;13.314;2024-03-08T02:06:48;31.13;;;9.73;;
68803;SDS011;55787;52.678;13.314;2024-03-08T02:09:15;25.87;;;8.77;;
68803;SDS011;55787;52.678;13.314;2024-03-08T02:11:43;28.58;;;8.85;;
68803;SDS011;55787;52.678;13.314;2024-03-08T02:14:10;32.40;;;10.05;;
68803;SDS011;55787;52.678;13.314;2024-03-08T02:16:37;29.38;;;9.57;;
68803;SDS011;55787;52.678;13.314;2024-03-08T02:19:05;31.23;;;10.10;;
68803;SDS011;55787;52.678;13.314;2024-03-08T02:21:35;31.20;;;9.27;;
68803;SDS011;55787;52.678;13.314;2024-03-08T02:24:02;34.72;;;9.90;;
68803;SDS011;55787;52.678;13.314;2024-03-08T02:26:29;28.10;;;9.07;;
68803;SDS011;55787;52.678;13.314;2024-03-08T02:28:56;33.75;;;10.13;;
68803;SDS011;55787;52.678;13.314;2024-03-08T02:31:22;30.83;;;9.65;;
68803;SDS011;55787;52.678;13.314;2024-03-08T02:33:49;30.00;;;9.20;;
68803;SDS011;55787;52.678;13.314;2024-03-08T02:36:16;27.70;;;7.97;;
68803;SDS011;55787;52.678;13.314;2024-03-08T02:38:43;28.77;;;10.27;;
68803;SDS011;55787;52.678;13.314;2024-03-08T02:41:09;29.17;;;9.60;;
68803;SDS011;55787;52.678;13.314;2024-03-08T02:43:36;33.38;;;10.45;;
68803;SDS011;55787;52.678;13.314;2024-03-08T02:46:04;28.87;;;10.03;;
68803;SDS011;55787;52.678;13.314;2024-03-08T02:48:31;28.80;;;9.38;;
68803;SDS011;55787;52.678;13.314;2024-03-08T02:50:58;32.08;;;10.43;;
68803;SDS011;55787;52.678;13.314;2024-03-08T02:53:25;32.72;;;9.77;;
68803;SDS011;55787;52.678;13.314;2024-03-08T02:55:51;29.27;;;10.07;;
68803;SDS011;55787;52.678;13.314;2024-03-08T02:58:18;31.80;;;9.00;;
68803;SDS011;55787;52.678;13.314;2024-03-08T03:00:45;32.15;;;9.98;;
68803;SDS011;55787;52.678;13.314;2024-03-08T03:03:11;29.25;;;9.32;;
68803;SDS011;55787;52.678;13.314;2024-03-08T03:05:38;31.20;;;10.02;;
68803;SDS011;55787;52.678;13.314;2024-03-08T03:08:11;31.02;;;10.10;;
68803;SDS011;55787;52.678;13.314;2024-03-08T03:10:39;34.93;;;10.60;;
68803;SDS011;55787;52.678;13.314;2024-03-08T03:13:06;32.53;;;9.60;;
68803;SDS011;55787;52.678;13.314;2024-03-08T03:15:32;32.42;;;10.20;;
68803;SDS011;55787;52.678;13.314;2024-03-08T03:18:00;35.58;;;10.55;;
68803;SDS011;55787;52.678;13.314;2024-03-08T03:20:28;34.58;;;10.50;;
68803;SDS011;55787;52.678;13.314;2024-03-08T03:22:59;33.57;;;9.87;;
68803;SDS011;55787;52.678;13.314;2024-03-08T03:25:29;32.65;;;9.85;;
68803;SDS011;55787;52.678;13.314;2024-03-08T03:28:02;37.30;;;10.32;;
68803;SDS011;55787;52.678;13.314;2024-03-08T03:30:29;35.10;;;10.93;;
68803;SDS011;55787;52.678;13.314;2024-03-08T03:33:00;32.92;;;9.32;;
68803;SDS011;55787;52.678;13.314;2024-03-08T03:35:28;33.57;;;10.37;;
68803;SDS011;55787;52.678;13.314;2024-03-08T03:37:55;30.70;;;9.52;;
68803;SDS011;55787;52.678;13.314;2024-03-08T03:40:36;33.42;;;10.07;;
68803;SDS011;55787;52.678;13.314;2024-03-08T03:43:03;34.50;;;10.90;;
68803;SDS011;55787;52.678;13.314;2024-03-08T03:45:30;31.92;;;9.93;;
68803;SDS011;55787;52.678;13.314;2024-03-08T03:48:03;32.63;;;10.17;;
68803;SDS011;55787;52.678;13.314;2024-03-08T03:50:33;37.40;;;10.55;;
68803;SDS011;55787;52.678;13.314;2024-03-08T03:53:03;35.78;;;11.10;;
68803;SDS011;55787;52.678;13.314;2024-03-08T03:55:33;33.75;;;10.23;;
68803;SDS011;55787;52.678;13.314;2024-03-08T03:57:59;33.70;;;11.45;;
68803;SDS011;55787;52.678;13.314;2024-03-08T04:00:27;31.30;;;10.53;;
68803;SDS011;55787;52.678;13.314;2024-03-08T04:02:54;32.22;;;10.05;;
68803;SDS011;55787;52.678;13.314;2024-03-08T04:05:21;33.22;;;10.32;;
68803;SDS011;55787;52.678;13.314;2024-03-08T04:07:48;34.03;;;10.38;;
68803;SDS011;55787;52.678;13.314;2024-03-08T04:10:14;32.35;;;10.88;;
68803;SDS011;55787;52.678;13.314;2024-03-08T04:12:41;32.13;;;11.23;;
68803;SDS011;55787;52.678;13.314;2024-03-08T04:15:08;36.30;;;11.32;;
68803;SDS011;55787;52.678;13.314;2024-03-08T04:17:37;32.92;;;11.20;;
68803;SDS011;55787;52.678;13.314;2024-03-08T04:20:04;31.30;;;10.43;;
68803;SDS011;55787;52.678;13.314;2024-03-08T04:22:36;35.47;;;10.70;;
68803;SDS011;55787;52.678;13.314;2024-03-08T04:25:03;40.90;;;12.20;;
68803;SDS011;55787;52.678;13.314;2024-03-08T04:27:32;33.35;;;10.10;;
68803;SDS011;55787;52.678;13.314;2024-03-08T04:30:00;37.92;;;11.07;;
68803;SDS011;55787;52.678;13.314;2024-03-08T04:32:27;37.67;;;11.18;;
68803;SDS011;55787;52.678;13.314;2024-03-08T04:34:56;38.67;;;11.73;;
68803;SDS011;55787;52.678;13.314;2024-03-08T04:37:23;35.77;;;11.00;;
68803;SDS011;55787;52.678;13.314;2024-03-08T04:39:51;38.17;;;11.23;;
68803;SDS011;55787;52.678;13.314;2024-03-08T04:42:18;34.38;;;11.05;;
68803;SDS011;55787;52.678;13.314;2024-03-08T04:44:45;34.33;;;10.60;;
68803;SDS011;55787;52.678;13.314;2024-03-08T04:47:11;38.35;;;11.48;;
68803;SDS011;55787;52.678;13.314;2024-03-08T04:49:38;34.10;;;11.17;;
68803;SDS011;55787;52.678;13.314;2024-03-08T04:52:05;37.00;;;11.15;;
68803;SDS011;55787;52.678;13.314;2024-03-08T04:54:33;33.63;;;11.32;;
68803;SDS011;55787;52.678;13.314;2024-03-08T04:57:00;35.95;;;11.90;;
68803;SDS011;55787;52.678;13.314;2024-03-08T04:59:29;34.10;;;10.88;;
68803;SDS011;55787;52.678;13.314;2024-03-08T05:01:56;37.90;;;11.23;;
68803;SDS011;55787;52.678;13.314;2024-03-08T05:04:22;37.58;;;11.68;;
68803;SDS011;55787;52.678;13.314;2024-03-08T05:06:49;38.92;;;11.32;;
68803;SDS011;55787;52.678;13.314;2024-03-08T05:09:15;36.95;;;11.82;;
68803;SDS011;55787;52.678;13.314;2024-03-08T05:11:43;35.33;;;11.85;;
68803;SDS011;55787;52.678;13.314;2024-03-08T05:14:11;40.50;;;11.73;;
68803;SDS011;55787;52.678;13.314;2024-03-08T05:16:43;36.85;;;11.35;;
68803;SDS011;55787;52.678;13.314;2024-03-08T05:19:15;40.75;;;12.50;;
68803;SDS011;55787;52.678;13.314;2024-03-08T05:21:48;35.58;;;10.50;;
68803;SDS011;55787;52.678;13.314;2024-03-08T05:24:16;38.67;;;11.77;;
68803;SDS011;55787;52.678;13.314;2024-03-08T05:26:45;35.90;;;10.47;;
68803;SDS011;55787;52.678;13.314;2024-03-08T05:29:12;34.35;;;10.57;;
68803;SDS011;55787;52.678;13.314;2024-03-08T05:31:49;39.75;;;11.43;;
68803;SDS011;55787;52.678;13.314;2024-03-08T05:34:18;35.67;;;11.75;;
68803;SDS011;55787;52.678;13.314;2024-03-08T05:36:48;34.22;;;11.63;;
68803;SDS011;55787;52.678;13.314;2024-03-08T05:39:17;33.60;;;10.53;;
68803;SDS011;55787;52.678;13.314;2024-03-08T05:41:44;36.83;;;11.98;;
68803;SDS011;55787;52.678;13.314;2024-03-08T05:44:12;38.80;;;12.05;;
68803;SDS011;55787;52.678;13.314;2024-03-08T05:46:39;39.65;;;11.60;;
68803;SDS011;55787;52.678;13.314;2024-03-08T05:49:06;36.42;;;11.07;;
68803;SDS011;55787;52.678;13.314;2024-03-08T05:51:34;32.13;;;11.40;;
68803;SDS011;55787;52.678;13.314;2024-03-08T05:54:01;36.92;;;11.55;;
68803;SDS011;55787;52.678;13.314;2024-03-08T05:56:32;39.13;;;12.40;;
68803;SDS011;55787;52.678;13.314;2024-03-08T05:58:59;39.72;;;12.40;;
68803;SDS011;55787;52.678;13.314;2024-03-08T06:01:26;40.05;;;11.77;;
68803;SDS011;55787;52.678;13.314;2024-03-08T06:03:53;36.80;;;11.93;;
68803;SDS011;55787;52.678;13.314;2024-03-08T06:06:24;43.47;;;11.60;;
68803;SDS011;55787;52.678;13.314;2024-03-08T06:08:51;40.85;;;12.88;;
68803;SDS011;55787;52.678;13.314;2024-03-08T06:11:19;36.63;;;12.07;;
68803;SDS011;55787;52.678;13.314;2024-03-08T06:13:49;39.50;;;12.27;;
68803;SDS011;55787;52.678;13.314;2024-03-08T06:16:16;43.20;;;12.50;;
68803;SDS011;55787;52.678;13.314;2024-03-08T06:18:42;36.88;;;11.63;;
68803;SDS011;55787;52.678;13.314;2024-03-08T06:21:10;38.00;;;12.05;;
68803;SDS011;55787;52.678;13.314;2024-03-08T06:23:38;43.83;;;13.48;;
68803;SDS011;55787;52.678;13.314;2024-03-08T06:26:05;41.65;;;13.85;;
68803;SDS011;55787;52.678;13.314;2024-03-08T06:28:32;43.57;;;14.33;;
68803;SDS011;55787;52.678;13.314;2024-03-08T06:30:59;40.45;;;13.70;;
68803;SDS011;55787;52.678;13.314;2024-03-08T06:33:25;40.45;;;13.23;;
68803;SDS011;55787;52.678;13.314;2024-03-08T06:35:55;47.95;;;14.23;;
68803;SDS011;55787;52.678;13.314;2024-03-08T06:38:24;39.45;;;13.18;;
68803;SDS011;55787;52.678;13.314;2024-03-08T06:40:51;41.07;;;12.97;;
68803;SDS011;55787;52.678;13.314;2024-03-08T06:43:19;42.78;;;14.13;;
68803;SDS011;55787;52.678;13.314;2024-03-08T06:45:46;40.58;;;13.02;;
68803;SDS011;55787;52.678;13.314;2024-03-08T06:48:15;39.65;;;13.38;;
68803;SDS011;55787;52.678;13.314;2024-03-08T06:50:43;41.53;;;12.98;;
68803;SDS011;55787;52.678;13.314;2024-03-08T06:53:14;40.63;;;12.97;;
68803;SDS011;55787;52.678;13.314;2024-03-08T06:55:42;34.92;;;11.85;;
68803;SDS011;55787;52.678;13.314;2024-03-08T06:58:10;38.03;;;12.68;;
68803;SDS011;55787;52.678;13.314;2024-03-08T07:00:37;34.13;;;12.18;;
68803;SDS011;55787;52.678;13.314;2024-03-08T07:03:07;34.97;;;12.40;;
68803;SDS011;55787;52.678;13.314;2024-03-08T07:05:34;39.53;;;13.27;;
68803;SDS011;55787;52.678;13.314;2024-03-08T07:08:01;35.47;;;12.23;;
68803;SDS011;55787;52.678;13.314;2024-03-08T07:10:28;34.85;;;11.88;;
68803;SDS011;55787;52.678;13.314;2024-03-08T07:12:55;34.80;;;11.80;;
68803;SDS011;55787;52.678;13.314;2024-03-08T07:15:21;33.63;;;12.45;;
68803;SDS011;55787;52.678;13.314;2024-03-08T07:17:49;32.17;;;11.27;;
68803;SDS011;55787;52.678;13.314;2024-03-08T07:20:19;33.00;;;11.80;;
68803;SDS011;55787;52.678;13.314;2024-03-08T07:22:46;31.42;;;11.80;;
68803;SDS011;55787;52.678;13.314;2024-03-08T07:25:19;36.55;;;12.68;;
68803;SDS011;55787;52.678;13.314;2024-03-08T07:27:48;32.25;;;11.85;;
68803;SDS011;55787;52.678;13.314;2024-03-08T07:30:15;30.70;;;11.63;;
68803;SDS011;55787;52.678;13.314;2024-03-08T07:33:01;34.75;;;12.80;;
68803;SDS011;55787;52.678;13.314;2024-03-08T07:35:28;30.17;;;12.20;;
68803;SDS011;55787;52.678;13.314;2024-03-08T07:37:55;28.50;;;12.18;;
68803;SDS011;55787;52.678;13.314;2024-03-08T07:40:22;33.28;;;12.43;;
68803;SDS011;55787;52.678;13.314;2024-03-08T07:42:49;29.03;;;11.57;;
68803;SDS011;55787;52.678;13.314;2024-03-08T07:45:17;32.55;;;12.10;;
68803;SDS011;55787;52.678;13.314;2024-03-08T07:47:44;31.02;;;12.02;;
68803;SDS011;55787;52.678;13.314;2024-03-08T07:50:10;32.92;;;12.38;;
68803;SDS011;55787;52.678;13.314;2024-03-08T07:52:37;35.75;;;12.40;;
68803;SDS011;55787;52.678;13.314;2024-03-08T07:55:04;31.40;;;13.20;;
68803;SDS011;55787;52.678;13.314;2024-03-08T07:57:31;34.20;;;12.45;;
68803;SDS011;55787;52.678;13.314;2024-03-08T07:59:59;37.47;;;12.27;;
68803;SDS011;55787;52.678;13.314;2024-03-08T08:02:26;30.50;;;11.93;;
68803;SDS011;55787;52.678;13.314;2024-03-08T08:04:53;29.45;;;12.35;;
68803;SDS011;55787;52.678;13.314;2024-03-08T08:07:20;27.53;;;11.03;;
68803;SDS011;55787;52.678;13.314;2024-03-08T08:09:47;31.55;;;12.27;;
68803;SDS011;55787;52.678;13.314;2024-03-08T08:12:13;30.23;;;12.57;;
68803;SDS011;55787;52.678;13.314;2024-03-08T08:14:40;27.15;;;11.15;;
68803;SDS011;55787;52.678;13.314;2024-03-08T08:17:07;28.08;;;10.80;;
68803;SDS011;55787;52.678;13.314;2024-03-08T08:19:34;29.10;;;11.15;;
68803;SDS011;55787;52.678;13.314;2024-03-08T08:22:05;28.30;;;11.15;;
68803;SDS011;55787;52.678;13.314;2024-03-08T08:24:31;26.42;;;10.80;;
68803;SDS011;55787;52.678;13.314;2024-03-08T08:26:58;24.73;;;10.88;;
68803;SDS011;55787;52.678;13.314;2024-03-08T08:29:25;27.15;;;10.63;;
68803;SDS011;55787;52.678;13.314;2024-03-08T08:31:52;29.70;;;10.13;;
68803;SDS011;55787;52.678;13.314;2024-03-08T08:34:18;26.75;;;11.23;;
68803;SDS011;55787;52.678;13.314;2024-03-08T08:36:45;26.83;;;11.00;;
68803;SDS011;55787;52.678;13.314;2024-03-08T08:39:12;26.52;;;9.85;;
68803;SDS011;55787;52.678;13.314;2024-03-08T08:41:40;27.40;;;10.45;;
68803;SDS011;55787;52.678;13.314;2024-03-08T08:44:07;25.90;;;10.00;;
68803;SDS011;55787;52.678;13.314;2024-03-08T08:46:42;27.42;;;10.80;;
68803;SDS011;55787;52.678;13.314;2024-03-08T08:49:08;26.42;;;10.88;;
68803;SDS011;55787;52.678;13.314;2024-03-08T08:51:41;26.50;;;11.15;;
68803;SDS011;55787;52.678;13.314;2024-03-08T08:54:08;29.05;;;11.73;;
68803;SDS011;55787;52.678;13.314;2024-03-08T08:56:38;24.88;;;11.27;;
68803;SDS011;55787;52.678;13.314;2024-03-08T08:59:04;26.75;;;12.00;;
68803;SDS011;55787;52.678;13.314;2024-03-08T09:01:31;25.10;;;11.02;;
68803;SDS011;55787;52.678;13.314;2024-03-08T09:03:59;27.33;;;11.32;;
68803;SDS011;55787;52.678;13.314;2024-03-08T09:06:26;23.73;;;11.30;;
68803;SDS011;55787;52.678;13.314;2024-03-08T09:08:52;25.33;;;11.30;;
68803;SDS011;55787;52.678;13.314;2024-03-08T09:11:19;24.85;;;11.55;;
68803;SDS011;55787;52.678;13.314;2024-03-08T09:13:46;24.45;;;11.85;;
68803;SDS011;55787;52.678;13.314;2024-03-08T09:16:13;22.95;;;11.07;;
68803;SDS011;55787;52.678;13.314;2024-03-08T09:18:40;28.75;;;10.95;;
68803;SDS011;55787;52.678;13.314;2024-03-08T09:21:07;27.42;;;11.43;;
68803;SDS011;55787;52.678;13.314;2024-03-08T09:23:39;24.27;;;10.70;;
68803;SDS011;55787;52.678;13.314;2024-03-08T09:26:07;24.52;;;10.52;;
68803;SDS011;55787;52.678;13.314;2024-03-08T09:28:48;23.75;;;11.57;;
68803;SDS011;55787;52.678;13.314;2024-03-08T09:31:14;24.13;;;11.70;;
68803;SDS011;55787;52.678;13.314;2024-03-08T09:33:42;25.93;;;12.13;;
68803;SDS011;55787;52.678;13.314;2024-03-08T09:36:08;25.77;;;11.20;;
68803;SDS011;55787;52.678;13.314;2024-03-08T09:38:35;27.05;;;12.52;;
68803;SDS011;55787;52.678;13.314;2024-03-08T09:41:02;25.13;;;12.35;;
68803;SDS011;55787;52.678;13.314;2024-03-08T09:43:30;24.70;;;12.00;;
68803;SDS011;55787;52.678;13.314;2024-03-08T09:45:57;25.42;;;12.65;;
68803;SDS011;55787;52.678;13.314;2024-03-08T09:48:24;26.95;;;12.93;;
68803;SDS011;55787;52.678;13.314;2024-03-08T09:50:52;24.70;;;13.00;;
68803;SDS011;55787;52.678;13.314;2024-03-08T09:53:20;25.50;;;13.02;;
68803;SDS011;55787;52.678;13.314;2024-03-08T09:55:48;25.40;;;13.02;;
68803;SDS011;55787;52.678;13.314;2024-03-08T09:58:16;25.45;;;13.18;;
68803;SDS011;55787;52.678;13.314;2024-03-08T10:00:53;25.10;;;12.88;;
68803;SDS011;55787;52.678;13.314;2024-03-08T10:03:21;26.55;;;14.48;;
68803;SDS011;55787;52.678;13.314;2024-03-08T10:05:48;25.27;;;13.18;;
68803;SDS011;55787;52.678;13.314;2024-03-08T10:08:15;25.33;;;13.90;;
68803;SDS011;55787;52.678;13.314;2024-03-08T10:10:41;27.88;;;14.52;;
68803;SDS011;55787;52.678;13.314;2024-03-08T10:13:09;29.08;;;13.77;;
68803;SDS011;55787;52.678;13.314;2024-03-08T10:15:39;26.40;;;12.57;;
68803;SDS011;55787;52.678;13.314;2024-03-08T10:18:06;25.40;;;12.57;;
68803;SDS011;55787;52.678;13.314;2024-03-08T10:20:33;25.13;;;12.68;;
68803;SDS011;55787;52.678;13.314;2024-03-08T10:23:00;24.58;;;12.88;;
68803;SDS011;55787;52.678;13.314;2024-03-08T10:25:37;26.05;;;12.43;;
68803;SDS011;55787;52.678;13.314;2024-03-08T10:28:04;24.33;;;12.07;;
68803;SDS011;55787;52.678;13.314;2024-03-08T10:30:31;24.23;;;11.90;;
68803;SDS011;55787;52.678;13.314;2024-03-08T10:32:57;23.88;;;12.07;;
68803;SDS011;55787;52.678;13.314;2024-03-08T10:35:25;24.48;;;12.15;;
68803;SDS011;55787;52.678;13.314;2024-03-08T10:37:53;24.42;;;12.50;;
68803;SDS011;55787;52.678;13.314;2024-03-08T10:40:27;22.27;;;11.52;;
68803;SDS011;55787;52.678;13.314;2024-03-08T10:42:55;23.95;;;11.73;;
68803;SDS011;55787;52.678;13.314;2024-03-08T10:45:35;23.73;;;11.43;;
68803;SDS011;55787;52.678;13.314;2024-03-08T10:51:03;23.25;;;10.50;;
68803;SDS011;55787;52.678;13.314;2024-03-08T10:53:31;25.83;;;10.90;;
68803;SDS011;55787;52.678;13.314;2024-03-08T10:56:00;22.90;;;9.70;;
68803;SDS011;55787;52.678;13.314;2024-03-08T10:58:28;24.90;;;10.15;;
68803;SDS011;55787;52.678;13.314;2024-03-08T11:00:56;21.98;;;9.10;;
68803;SDS011;55787;52.678;13.314;2024-03-08T11:06:22;22.83;;;9.63;;
68803;SDS011;55787;52.678;13.314;2024-03-08T11:08:56;23.67;;;8.88;;
68803;SDS011;55787;52.678;13.314;2024-03-08T11:11:28;21.58;;;8.45;;
68803;SDS011;55787;52.678;13.314;2024-03-08T11:14:02;21.27;;;8.88;;
68803;SDS011;55787;52.678;13.314;2024-03-08T11:18:58;21.83;;;8.07;;
68803;SDS011;55787;52.678;13.314;2024-03-08T11:21:32;25.38;;;9.45;;
68803;SDS011;55787;52.678;13.314;2024-03-08T11:24:06;25.95;;;9.75;;
68803;SDS011;55787;52.678;13.314;2024-03-08T11:26:34;21.40;;;9.25;;
68803;SDS011;55787;52.678;13.314;2024-03-08T11:32:08;23.02;;;9.52;;
68803;SDS011;55787;52.678;13.314;2024-03-08T11:34:42;24.25;;;10.15;;
68803;SDS011;55787;52.678;13.314;2024-03-08T11:37:11;22.75;;;9.63;;
68803;SDS011;55787;52.678;13.314;2024-03-08T11:39:39;19.83;;;8.70;;
68803;SDS011;55787;52.678;13.314;2024-03-08T11:42:06;22.83;;;10.18;;
68803;SDS011;55787;52.678;13.314;2024-03-08T11:44:33;22.30;;;9.90;;
68803;SDS011;55787;52.678;13.314;2024-03-08T11:46:59;22.55;;;9.93;;
68803;SDS011;55787;52.678;13.314;2024-03-08T11:49:26;20.67;;;9.50;;
68803;SDS011;55787;52.678;13.314;2024-03-08T11:51:53;22.98;;;10.18;;
68803;SDS011;55787;52.678;13.314;2024-03-08T11:54:20;22.00;;;10.73;;
68803;SDS011;55787;52.678;13.314;2024-03-08T11:56:51;20.33;;;9.82;;
68803;SDS011;55787;52.678;13.314;2024-03-08T11:59:18;21.92;;;10.50;;
68803;SDS011;55787;52.678;13.314;2024-03-08T12:01:56;20.00;;;10.10;;
68803;SDS011;55787;52.678;13.314;2024-03-08T12:04:28;21.83;;;10.77;;
68803;SDS011;55787;52.678;13.314;2024-03-08T12:06:55;22.15;;;10.45;;
68803;SDS011;55787;52.678;13.314;2024-03-08T12:09:22;23.85;;;10.55;;
68803;SDS011;55787;52.678;13.314;2024-03-08T12:11:48;21.52;;;10.65;;
68803;SDS011;55787;52.678;13.314;2024-03-08T12:14:17;19.80;;;10.07;;
68803;SDS011;55787;52.678;13.314;2024-03-08T12:16:44;21.98;;;10.70;;
68803;SDS011;55787;52.678;13.314;2024-03-08T12:19:11;21.30;;;10.07;;
68803;SDS011;55787;52.678;13.314;2024-03-08T12:21:38;21.92;;;10.98;;
68803;SDS011;55787;52.678;13.314;2024-03-08T12:24:14;22.45;;;10.70;;
68803;SDS011;55787;52.678;13.314;2024-03-08T12:26:43;23.55;;;11.05;;
68803;SDS011;55787;52.678;13.314;2024-03-08T12:31:50;20.48;;;10.32;;
68803;SDS011;55787;52.678;13.314;2024-03-08T12:34:19;20.48;;;9.95;;
68803;SDS011;55787;52.678;13.314;2024-03-08T12:36:46;20.27;;;10.52;;
68803;SDS011;55787;52.678;13.314;2024-03-08T12:39:17;19.63;;;10.13;;
68803;SDS011;55787;52.678;13.314;2024-03-08T12:41:48;19.55;;;9.93;;
68803;SDS011;55787;52.678;13.314;2024-03-08T12:44:18;20.85;;;10.10;;
68803;SDS011;55787;52.678;13.314;2024-03-08T12:46:48;19.77;;;9.90;;
68803;SDS011;55787;52.678;13.314;2024-03-08T12:49:17;21.27;;;10.75;;
68803;SDS011;55787;52.678;13.314;2024-03-08T12:51:44;22.52;;;11.48;;
68803;SDS011;55787;52.678;13.314;2024-03-08T12:54:11;20.35;;;10.15;;
68803;SDS011;55787;52.678;13.314;2024-03-08T12:56:38;19.30;;;9.38;;
68803;SDS011;55787;52.678;13.314;2024-03-08T12:59:07;20.80;;;10.43;;
68803;SDS011;55787;52.678;13.314;2024-03-08T13:01:34;21.05;;;9.85;;
68803;SDS011;55787;52.678;13.314;2024-03-08T13:04:03;21.73;;;9.75;;
68803;SDS011;55787;52.678;13.314;2024-03-08T13:06:32;19.77;;;9.60;;
68803;SDS011;55787;52.678;13.314;2024-03-08T13:08:59;20.13;;;9.35;;
68803;SDS011;55787;52.678;13.314;2024-03-08T13:11:31;19.13;;;9.77;;
68803;SDS011;55787;52.678;13.314;2024-03-08T13:14:03;20.63;;;9.57;;
68803;SDS011;55787;52.678;13.314;2024-03-08T13:16:31;21.85;;;10.65;;
68803;SDS011;55787;52.678;13.314;2024-03-08T13:18:59;22.30;;;9.90;;
68803;SDS011;55787;52.678;13.314;2024-03-08T13:21:25;20.25;;;9.48;;
68803;SDS011;55787;52.678;13.314;2024-03-08T13:23:52;20.08;;;9.25;;
68803;SDS011;55787;52.678;13.314;2024-03-08T13:26:19;20.20;;;9.73;;
68803;SDS011;55787;52.678;13.314;2024-03-08T13:28:46;21.35;;;9.82;;
68803;SDS011;55787;52.678;13.314;2024-03-08T13:31:20;20.02;;;9.82;;
68803;SDS011;55787;52.678;13.314;2024-03-08T13:33:47;21.63;;;9.60;;
68803;SDS011;55787;52.678;13.314;2024-03-08T13:36:14;20.40;;;9.80;;
68803;SDS011;55787;52.678;13.314;2024-03-08T13:41:10;21.60;;;9.82;;
68803;SDS011;55787;52.678;13.314;2024-03-08T13:43:38;21.60;;;10.18;;
68803;SDS011;55787;52.678;13.314;2024-03-08T13:46:06;21.80;;;10.43;;
68803;SDS011;55787;52.678;13.314;2024-03-08T13:48:33;22.52;;;9.98;;
68803;SDS011;55787;52.678;13.314;2024-03-08T13:51:00;22.55;;;10.02;;
68803;SDS011;55787;52.678;13.314;2024-03-08T13:53:27;23.55;;;10.10;;
68803;SDS011;55787;52.678;13.314;2024-03-08T13:55:53;22.23;;;10.63;;
68803;SDS011;55787;52.678;13.314;2024-03-08T13:58:20;23.90;;;10.25;;
68803;SDS011;55787;52.678;13.314;2024-03-08T14:00:47;24.35;;;10.05;;
68803;SDS011;55787;52.678;13.314;2024-03-08T14:03:14;22.38;;;10.48;;
68803;SDS011;55787;52.678;13.314;2024-03-08T14:05:41;22.05;;;10.60;;
68803;SDS011;55787;52.678;13.314;2024-03-08T14:08:09;20.98;;;10.32;;
68803;SDS011;55787;52.678;13.314;2024-03-08T14:10:38;21.73;;;10.75;;
68803;SDS011;55787;52.678;13.314;2024-03-08T14:13:05;22.63;;;11.15;;
68803;SDS011;55787;52.678;13.314;2024-03-08T14:15:33;26.35;;;11.00;;
68803;SDS011;55787;52.678;13.314;2024-03-08T14:18:08;23.15;;;10.40;;
68803;SDS011;55787;52.678;13.314;2024-03-08T14:20:34;21.90;;;10.15;;
68803;SDS011;55787;52.678;13.314;2024-03-08T14:23:01;23.48;;;10.30;;
68803;SDS011;55787;52.678;13.314;2024-03-08T14:25:28;21.40;;;10.27;;
68803;SDS011;55787;52.678;13.314;2024-03-08T14:27:56;21.85;;;10.00;;
68803;SDS011;55787;52.678;13.314;2024-03-08T14:30:28;23.52;;;10.90;;
68803;SDS011;55787;52.678;13.314;2024-03-08T14:33:02;26.15;;;11.23;;
68803;SDS011;55787;52.678;13.314;2024-03-08T14:35:29;24.13;;;10.98;;